Time;durP1;ratioP1;P1;durP2;ratioP2;P2;SDS_P1;SDS_P2;PMS_P1;PMS_P2;Temp;Humidity;BMP_temperature;BMP_pressure;BME280_temperature;BME280_humidity;BME280_pressure;Samples;Min_cycle;Max_cycle;Signal;HPM_P1;HPM_P2
2021/01/28 00:00:09;;;;;;;24.93;17.87;;;2.50;99.90;;;;;;5022588;28;20466;-77
2021/01/28 00:02:35;;;;;;;20.83;16.23;;;2.50;99.90;;;;;;5030832;28;20437;-78
2021/01/28 00:05:00;;;;;;;21.23;17.13;;;2.50;99.90;;;;;;5029353;28;20429;-77
2021/01/28 00:07:26;;;;;;;19.77;16.80;;;2.50;99.90;;;;;;5028601;28;20198;-76
2021/01/28 00:09:52;;;;;;;21.80;16.73;;;2.50;99.90;;;;;;5023371;28;20478;-76
2021/01/28 00:12:17;;;;;;;20.87;17.20;;;2.50;99.90;;;;;;5012753;28;20321;-78
2021/01/28 00:14:43;;;;;;;19.90;17.07;;;2.50;99.90;;;;;;5030390;28;20195;-76
2021/01/28 00:17:08;;;;;;;27.27;18.17;;;2.50;99.90;;;;;;5010057;28;20198;-77
2021/01/28 00:19:34;;;;;;;19.87;15.47;;;2.60;99.90;;;;;;5028945;28;20632;-77
2021/01/28 00:22:00;;;;;;;19.13;15.93;;;2.60;99.90;;;;;;5036437;28;20190;-76
2021/01/28 00:24:25;;;;;;;21.20;17.97;;;2.50;99.90;;;;;;5035746;28;20623;-75
2021/01/28 00:26:51;;;;;;;22.03;16.13;;;2.60;99.90;;;;;;5003492;28;20247;-77
2021/01/28 00:29:17;;;;;;;20.00;15.53;;;2.60;99.90;;;;;;5020860;28;20636;-77
2021/01/28 00:31:43;;;;;;;21.00;14.97;;;2.60;99.90;;;;;;5005921;28;20184;-78
2021/01/28 00:34:08;;;;;;;19.23;17.23;;;2.60;99.90;;;;;;5010042;28;20448;-76
2021/01/28 00:36:34;;;;;;;18.37;15.00;;;2.60;99.90;;;;;;5010614;28;20209;-77
2021/01/28 00:38:59;;;;;;;21.07;16.20;;;2.60;99.90;;;;;;5026124;28;20170;-77
2021/01/28 00:41:25;;;;;;;18.93;15.27;;;2.60;99.90;;;;;;5028648;28;20209;-77
2021/01/28 00:43:50;;;;;;;19.43;14.43;;;2.60;99.90;;;;;;5031479;28;20229;-78
2021/01/28 00:46:16;;;;;;;18.50;15.30;;;2.60;99.90;;;;;;5037704;28;20209;-78
2021/01/28 00:48:42;;;;;;;16.43;14.70;;;2.60;99.90;;;;;;5011234;28;20180;-78
2021/01/28 00:51:08;;;;;;;21.03;15.03;;;2.70;99.90;;;;;;5015015;28;20207;-78
2021/01/28 00:53:34;;;;;;;19.93;14.90;;;2.60;99.90;;;;;;5009312;28;20195;-79
2021/01/28 00:56:00;;;;;;;18.63;14.53;;;2.70;99.90;;;;;;5025871;28;20418;-77
2021/01/28 00:58:26;;;;;;;19.20;14.73;;;2.70;99.90;;;;;;5031833;28;20191;-78
2021/01/28 01:00:53;;;;;;;16.47;12.80;;;2.70;99.90;;;;;;5020675;28;20234;-76
2021/01/28 01:03:22;;;;;;;19.77;14.77;;;2.70;99.90;;;;;;4997684;28;20421;-75
2021/01/28 01:05:48;;;;;;;18.77;13.77;;;2.70;99.90;;;;;;5021498;28;20444;-77
2021/01/28 01:08:18;;;;;;;22.77;14.87;;;2.70;99.90;;;;;;5029367;28;20950;-77
2021/01/28 01:10:56;;;;;;;17.10;13.73;;;2.70;99.90;;;;;;5025240;28;20502;-78
2021/01/28 01:13:25;;;;;;;18.80;14.43;;;2.80;99.90;;;;;;5024012;28;20926;-77
2021/01/28 01:15:51;;;;;;;21.50;15.27;;;2.80;99.90;;;;;;5028653;28;20942;-78
2021/01/28 01:18:22;;;;;;;17.53;14.00;;;2.80;99.90;;;;;;5031108;28;20433;-77
2021/01/28 01:20:47;;;;;;;22.37;15.77;;;2.80;99.90;;;;;;5004186;28;616696;-78
2021/01/28 01:23:13;;;;;;;18.13;15.57;;;2.80;99.90;;;;;;5021823;28;20456;-78
2021/01/28 01:25:39;;;;;;;24.23;15.80;;;2.80;99.90;;;;;;5028049;28;20190;-78
2021/01/28 01:28:05;;;;;;;20.67;14.70;;;2.80;99.90;;;;;;5025628;28;20504;-77
2021/01/28 01:30:32;;;;;;;20.43;15.50;;;2.80;99.90;;;;;;5007733;28;20206;-77
2021/01/28 01:32:58;;;;;;;23.53;15.70;;;2.80;99.90;;;;;;5035161;28;20425;-78
2021/01/28 01:35:25;;;;;;;18.77;15.83;;;2.90;99.90;;;;;;5022739;28;20944;-77
2021/01/28 01:37:52;;;;;;;20.03;15.43;;;2.90;99.90;;;;;;5010004;28;20237;-79
2021/01/28 01:40:33;;;;;;;20.33;15.00;;;2.90;99.90;;;;;;5010451;28;20505;-77
2021/01/28 01:43:00;;;;;;;20.07;14.20;;;2.90;99.90;;;;;;5030298;28;20452;-78
2021/01/28 01:45:29;;;;;;;18.63;14.50;;;2.90;99.90;;;;;;5007103;28;20434;-76
2021/01/28 01:48:04;;;;;;;23.80;15.53;;;2.90;99.90;;;;;;5027297;28;20426;-78
2021/01/28 01:50:35;;;;;;;21.23;14.50;;;2.90;99.90;;;;;;5033366;28;20476;-77
2021/01/28 01:53:03;;;;;;;24.47;14.30;;;2.90;99.90;;;;;;5030015;28;20820;-77
2021/01/28 01:55:30;;;;;;;19.67;14.87;;;2.90;99.90;;;;;;5029812;28;20529;-77
2021/01/28 01:58:00;;;;;;;22.00;14.17;;;3.00;99.90;;;;;;5023569;28;20918;-77
2021/01/28 02:00:26;;;;;;;20.93;14.23;;;2.90;99.90;;;;;;5028942;28;20490;-78
2021/01/28 02:02:56;;;;;;;20.53;14.67;;;2.90;99.90;;;;;;5024385;28;20463;-76
2021/01/28 02:05:25;;;;;;;21.27;15.60;;;2.90;99.90;;;;;;5022098;28;20214;-77
2021/01/28 02:07:51;;;;;;;21.07;15.70;;;3.00;99.90;;;;;;5007990;28;20465;-79
2021/01/28 02:10:19;;;;;;;18.93;13.67;;;3.00;99.90;;;;;;5027906;28;20496;-79
2021/01/28 02:12:45;;;;;;;21.33;16.53;;;3.00;99.90;;;;;;5013776;28;20259;-77
2021/01/28 02:15:12;;;;;;;22.43;15.50;;;3.00;99.90;;;;;;5023307;28;20442;-78
2021/01/28 02:17:41;;;;;;;22.00;15.70;;;2.90;99.90;;;;;;5033189;28;20918;-77
2021/01/28 02:20:15;;;;;;;24.43;17.53;;;3.00;99.90;;;;;;5029241;28;20484;-77
2021/01/28 02:22:58;;;;;;;21.30;17.70;;;3.00;99.90;;;;;;5027893;28;20914;-78
2021/01/28 02:25:33;;;;;;;20.60;15.30;;;3.00;99.90;;;;;;5024572;28;20428;-77
2021/01/28 02:28:04;;;;;;;20.70;15.27;;;3.00;99.90;;;;;;5031558;28;20500;-79
2021/01/28 02:30:32;;;;;;;26.10;15.83;;;3.00;99.90;;;;;;5019118;28;20443;-78
2021/01/28 02:32:59;;;;;;;20.57;15.00;;;3.00;99.90;;;;;;5027000;28;20507;-76
2021/01/28 02:35:27;;;;;;;22.07;17.43;;;3.00;99.90;;;;;;5021183;28;20914;-78
2021/01/28 02:37:55;;;;;;;21.47;16.40;;;3.00;99.90;;;;;;5023089;28;20448;-79
2021/01/28 02:40:25;;;;;;;23.20;17.03;;;3.00;99.90;;;;;;5026177;28;20977;-76
2021/01/28 02:42:51;;;;;;;24.80;17.50;;;3.00;99.90;;;;;;5027581;28;20456;-79
2021/01/28 02:45:24;;;;;;;22.90;16.60;;;3.00;99.90;;;;;;5034012;28;20449;-77
2021/01/28 02:48:01;;;;;;;23.10;16.27;;;3.00;99.90;;;;;;5012619;28;20540;-78
2021/01/28 02:50:27;;;;;;;21.63;15.80;;;2.90;99.90;;;;;;5015675;28;20506;-77
2021/01/28 02:52:58;;;;;;;22.73;16.80;;;3.00;99.90;;;;;;5029741;28;20429;-77
2021/01/28 02:55:26;;;;;;;24.43;16.80;;;3.00;99.90;;;;;;5022795;28;20425;-76
2021/01/28 02:57:51;;;;;;;19.33;14.93;;;3.00;99.90;;;;;;5029396;28;20793;-80
2021/01/28 03:00:21;;;;;;;18.80;13.70;;;3.00;99.90;;;;;;5026142;28;20468;-78
2021/01/28 03:02:50;;;;;;;21.83;14.87;;;3.00;99.90;;;;;;5027195;28;20595;-79
2021/01/28 03:05:16;;;;;;;22.13;15.63;;;3.00;99.90;;;;;;5030376;28;20469;-78
2021/01/28 03:07:42;;;;;;;15.43;12.53;;;3.00;99.90;;;;;;5009397;28;20437;-78
2021/01/28 03:10:08;;;;;;;21.30;15.10;;;3.00;99.90;;;;;;5029685;28;20454;-79
2021/01/28 03:12:33;;;;;;;23.23;15.10;;;3.00;99.90;;;;;;5022741;28;20352;-77
2021/01/28 03:14:59;;;;;;;20.83;14.77;;;3.00;99.90;;;;;;5011827;28;20496;-78
2021/01/28 03:17:25;;;;;;;18.07;14.57;;;3.00;99.90;;;;;;5031265;28;20199;-79
2021/01/28 03:19:50;;;;;;;21.70;15.47;;;3.00;99.90;;;;;;5009025;28;20230;-80
2021/01/28 03:22:16;;;;;;;18.10;14.13;;;3.00;99.90;;;;;;5033322;28;20194;-79
2021/01/28 03:24:42;;;;;;;20.43;13.57;;;3.00;99.90;;;;;;5028333;28;20703;-77
2021/01/28 03:27:07;;;;;;;19.70;14.03;;;3.00;99.90;;;;;;5029455;28;20265;-80
2021/01/28 03:29:33;;;;;;;19.73;14.13;;;3.10;99.90;;;;;;5024174;28;20661;-77
2021/01/28 03:31:58;;;;;;;18.50;12.90;;;3.10;99.90;;;;;;5027308;28;20207;-80
2021/01/28 03:34:24;;;;;;;18.73;12.90;;;3.10;99.90;;;;;;5031768;28;20267;-79
2021/01/28 03:36:49;;;;;;;19.27;14.43;;;3.10;99.90;;;;;;5026098;28;20187;-79
2021/01/28 03:39:15;;;;;;;19.67;13.03;;;3.10;99.90;;;;;;5034084;28;20191;-80
2021/01/28 03:41:40;;;;;;;18.93;14.33;;;3.10;99.90;;;;;;5033382;28;20222;-78
2021/01/28 03:44:06;;;;;;;21.43;14.10;;;3.10;99.90;;;;;;5028338;28;20211;-78
2021/01/28 03:46:32;;;;;;;20.37;13.93;;;3.10;99.90;;;;;;5034105;28;20194;-76
2021/01/28 03:48:58;;;;;;;18.70;15.20;;;3.10;99.90;;;;;;5030165;28;20434;-78
2021/01/28 03:51:23;;;;;;;20.53;13.43;;;3.20;99.90;;;;;;5030591;28;20222;-78
2021/01/28 03:53:49;;;;;;;19.33;13.00;;;3.20;99.90;;;;;;5029883;28;20721;-78
2021/01/28 03:56:14;;;;;;;19.53;13.30;;;3.20;99.90;;;;;;5033104;28;20682;-77
2021/01/28 03:58:41;;;;;;;19.60;13.53;;;3.20;99.90;;;;;;5030712;28;20195;-78
2021/01/28 04:01:07;;;;;;;19.50;14.67;;;3.30;99.90;;;;;;5021309;28;20242;-77
2021/01/28 04:03:33;;;;;;;22.53;14.33;;;3.20;99.90;;;;;;5030140;28;20476;-79
2021/01/28 04:05:58;;;;;;;17.30;13.37;;;3.30;99.90;;;;;;5032117;28;20745;-78
2021/01/28 04:08:24;;;;;;;17.17;13.30;;;3.20;99.90;;;;;;5030425;28;20621;-79
2021/01/28 04:10:49;;;;;;;17.40;13.17;;;3.20;99.90;;;;;;5032401;28;20209;-78
2021/01/28 04:13:15;;;;;;;16.87;13.60;;;3.20;99.90;;;;;;5022813;28;20191;-78
2021/01/28 04:15:41;;;;;;;19.60;12.53;;;3.30;99.90;;;;;;5024723;28;20343;-77
2021/01/28 04:18:06;;;;;;;17.50;13.27;;;3.30;99.90;;;;;;5029764;28;20493;-80
2021/01/28 04:20:34;;;;;;;17.63;12.83;;;3.30;99.90;;;;;;5035016;28;20219;-79
2021/01/28 04:23:00;;;;;;;16.77;13.00;;;3.30;99.90;;;;;;5037160;28;20245;-80
2021/01/28 04:25:26;;;;;;;16.90;13.00;;;3.30;99.90;;;;;;5027006;28;20446;-78
2021/01/28 04:27:53;;;;;;;17.60;13.93;;;3.30;99.90;;;;;;5033468;28;20447;-77
2021/01/28 04:30:28;;;;;;;18.73;13.90;;;3.30;99.90;;;;;;5040342;28;20438;-77
2021/01/28 04:32:53;;;;;;;18.33;13.00;;;3.30;99.90;;;;;;5044881;28;20643;-77
2021/01/28 04:35:19;;;;;;;17.57;13.20;;;3.40;99.90;;;;;;5040260;28;20428;-77
2021/01/28 04:37:45;;;;;;;20.00;13.20;;;3.40;99.90;;;;;;5023579;28;20186;-78
2021/01/28 04:40:17;;;;;;;15.67;12.37;;;3.40;99.90;;;;;;5021214;28;20478;-79
2021/01/28 04:42:48;;;;;;;18.83;13.17;;;3.40;99.90;;;;;;5025744;28;20212;-79
2021/01/28 04:45:20;;;;;;;20.70;14.90;;;3.40;99.90;;;;;;5029605;28;20533;-79
2021/01/28 04:48:00;;;;;;;15.33;12.60;;;3.40;99.90;;;;;;5004193;28;20491;-78
2021/01/28 04:50:38;;;;;;;20.17;14.47;;;3.40;99.90;;;;;;5036253;28;20445;-77
2021/01/28 04:53:17;;;;;;;19.30;14.23;;;3.40;99.90;;;;;;5048774;28;20441;-78
2021/01/28 04:55:46;;;;;;;19.33;13.80;;;3.40;99.90;;;;;;5044159;28;20445;-78
2021/01/28 04:58:12;;;;;;;18.63;13.83;;;3.40;99.90;;;;;;5030135;28;20430;-77
2021/01/28 05:00:39;;;;;;;22.80;14.47;;;3.40;99.90;;;;;;5000074;28;20998;-80
2021/01/28 05:03:35;;;;;;;25.43;16.63;;;3.40;99.90;;;;;;5020383;28;20417;-80
2021/01/28 05:06:02;;;;;;;21.90;14.90;;;3.40;99.90;;;;;;4999025;28;20939;-76
2021/01/28 05:08:28;;;;;;;22.20;16.30;;;3.40;99.90;;;;;;5029269;28;20437;-80
2021/01/28 05:10:57;;;;;;;27.97;19.03;;;3.40;99.90;;;;;;5023738;28;20430;-78
2021/01/28 05:13:32;;;;;;;22.00;17.20;;;3.50;99.90;;;;;;5035587;28;20183;-78
2021/01/28 05:16:18;;;;;;;22.97;16.07;;;3.40;99.90;;;;;;5011702;28;20520;-79
2021/01/28 05:18:54;;;;;;;24.83;16.83;;;3.40;99.90;;;;;;5023927;28;20432;-79
2021/01/28 05:21:22;;;;;;;24.47;16.87;;;3.40;99.90;;;;;;5022080;28;20539;-80
2021/01/28 05:23:48;;;;;;;25.23;17.67;;;3.40;99.90;;;;;;5041215;28;20421;-81
2021/01/28 05:26:33;;;;;;;28.83;18.87;;;3.40;99.90;;;;;;5039413;28;20422;-77
2021/01/28 05:29:20;;;;;;;27.00;18.40;;;3.40;99.90;;;;;;5033611;28;20182;-80
2021/01/28 05:31:47;;;;;;;27.20;17.37;;;3.40;99.90;;;;;;5026888;28;20446;-80
2021/01/28 05:34:18;;;;;;;26.77;18.00;;;3.40;99.90;;;;;;5034610;28;20434;-79
2021/01/28 05:36:58;;;;;;;26.03;17.40;;;3.40;99.90;;;;;;5025902;28;20425;-79
2021/01/28 05:39:30;;;;;;;27.50;17.70;;;3.40;99.90;;;;;;5022850;28;20434;-80
2021/01/28 05:42:27;;;;;;;24.67;16.03;;;3.40;99.90;;;;;;5032815;28;20473;-79
2021/01/28 05:44:55;;;;;;;24.37;16.90;;;3.40;99.90;;;;;;5030952;28;20508;-80
2021/01/28 05:47:33;;;;;;;25.70;16.07;;;3.50;99.90;;;;;;5006981;28;20436;-80
2021/01/28 05:50:31;;;;;;;22.20;15.87;;;3.50;99.90;;;;;;5035599;28;20440;-81
2021/01/28 05:53:11;;;;;;;24.20;15.03;;;3.50;99.90;;;;;;4960520;28;20436;-79
2021/01/28 05:55:37;;;;;;;23.97;15.60;;;3.50;99.90;;;;;;4972954;28;20421;-79
2021/01/28 05:58:23;;;;;;;22.57;14.70;;;3.50;99.90;;;;;;4953607;28;20442;-80
2021/01/28 06:01:06;;;;;;;22.07;13.50;;;3.50;99.90;;;;;;4945140;28;20220;-79
2021/01/28 06:03:44;;;;;;;18.57;12.40;;;3.50;99.90;;;;;;4960908;28;20452;-79
2021/01/28 06:06:27;;;;;;;14.83;13.00;;;3.60;99.90;;;;;;4971478;28;20416;-79
2021/01/28 06:09:02;;;;;;;19.47;13.13;;;3.60;99.90;;;;;;4976938;28;20421;-79
2021/01/28 06:12:05;;;;;;;20.50;13.07;;;3.60;99.90;;;;;;4982641;28;20480;-80
2021/01/28 06:15:12;;;;;;;19.80;12.23;;;3.70;99.90;;;;;;4956465;28;20433;-79
2021/01/28 06:17:48;;;;;;;19.03;13.37;;;3.70;99.90;;;;;;4959932;28;20429;-79
2021/01/28 06:20:28;;;;;;;16.43;12.80;;;3.70;99.90;;;;;;4986334;28;20510;-79
2021/01/28 06:23:21;;;;;;;15.20;12.17;;;3.70;99.90;;;;;;4974304;28;20436;-79
2021/01/28 06:25:59;;;;;;;16.27;11.10;;;3.70;99.90;;;;;;4986376;28;20444;-79
2021/01/28 06:28:55;;;;;;;15.00;11.53;;;3.70;99.90;;;;;;5002807;28;20459;-79
2021/01/28 06:31:39;;;;;;;15.80;11.50;;;3.70;99.90;;;;;;5044226;28;20441;-79
2021/01/28 06:34:08;;;;;;;16.40;12.43;;;3.80;99.90;;;;;;5026142;28;20442;-80
2021/01/28 06:36:55;;;;;;;16.87;12.33;;;3.80;99.90;;;;;;5030525;28;20460;-79
2021/01/28 06:39:27;;;;;;;15.17;10.97;;;3.80;99.90;;;;;;5047382;28;20484;-78
2021/01/28 06:41:59;;;;;;;15.97;12.23;;;3.80;99.90;;;;;;5033533;28;20537;-80
2021/01/28 06:44:37;;;;;;;14.40;11.40;;;3.80;99.90;;;;;;5037686;28;20438;-79
2021/01/28 06:47:17;;;;;;;12.50;11.00;;;3.90;99.90;;;;;;5047959;28;20449;-80
2021/01/28 06:49:45;;;;;;;15.37;12.17;;;3.90;99.90;;;;;;5024704;28;20449;-78
2021/01/28 06:52:26;;;;;;;14.70;10.70;;;3.90;99.90;;;;;;5026184;28;20418;-79
2021/01/28 06:55:16;;;;;;;15.63;10.20;;;3.90;99.90;;;;;;5047690;28;20422;-80
2021/01/28 06:57:48;;;;;;;11.50;9.40;;;3.90;99.90;;;;;;5027062;28;20505;-77
2021/01/28 07:00:32;;;;;;;12.43;9.80;;;3.90;99.90;;;;;;5043809;28;20477;-79
2021/01/28 07:03:30;;;;;;;14.10;10.77;;;3.90;99.90;;;;;;5015166;28;20454;-81
2021/01/28 07:06:10;;;;;;;13.93;10.63;;;4.00;99.90;;;;;;5031779;28;20837;-78
2021/01/28 07:08:59;;;;;;;13.77;9.80;;;3.90;99.90;;;;;;5016411;28;20830;-79
2021/01/28 07:11:33;;;;;;;12.90;9.33;;;4.00;99.90;;;;;;5029433;28;20435;-78
2021/01/28 07:14:01;;;;;;;12.73;10.70;;;4.00;99.90;;;;;;5033879;28;20489;-79
2021/01/28 07:16:38;;;;;;;12.80;10.50;;;4.00;99.90;;;;;;5035602;28;20421;-79
2021/01/28 07:19:16;;;;;;;15.30;10.77;;;4.00;99.90;;;;;;5015620;28;20441;-79
2021/01/28 07:21:49;;;;;;;11.77;9.70;;;4.00;99.90;;;;;;5011673;28;20980;-79
2021/01/28 07:24:34;;;;;;;9.97;8.90;;;4.00;99.90;;;;;;5006340;28;20425;-79
2021/01/28 07:27:06;;;;;;;11.70;9.60;;;4.00;99.90;;;;;;5022879;28;20414;-80
2021/01/28 07:29:35;;;;;;;14.60;10.53;;;4.00;99.90;;;;;;5020768;28;20440;-78
2021/01/28 07:32:03;;;;;;;13.17;9.50;;;4.10;99.90;;;;;;5017728;28;20414;-79
2021/01/28 07:34:29;;;;;;;11.50;9.47;;;4.10;99.90;;;;;;5026694;28;20442;-78
2021/01/28 07:37:15;;;;;;;12.47;9.40;;;4.10;99.90;;;;;;5012703;28;20426;-79
2021/01/28 07:39:42;;;;;;;12.87;9.70;;;4.10;99.90;;;;;;5004444;28;20571;-80
2021/01/28 07:42:16;;;;;;;10.80;9.70;;;4.10;99.90;;;;;;5020671;28;20423;-80
2021/01/28 07:44:45;;;;;;;12.03;8.80;;;4.20;99.90;;;;;;5029942;28;20865;-78
2021/01/28 07:47:34;;;;;;;9.90;8.57;;;4.10;99.90;;;;;;5033172;28;20918;-79
2021/01/28 07:50:37;;;;;;;12.30;9.43;;;4.10;99.90;;;;;;5029083;28;20437;-81
2021/01/28 07:53:34;;;;;;;13.03;9.40;;;4.10;99.90;;;;;;5029323;28;20420;-81
2021/01/28 07:56:00;;;;;;;10.43;8.70;;;4.10;99.90;;;;;;5007606;28;20422;-78
2021/01/28 07:58:36;;;;;;;10.63;8.90;;;4.20;99.90;;;;;;5013848;28;20499;-79
2021/01/28 08:01:13;;;;;;;9.60;8.07;;;4.20;99.90;;;;;;5015399;28;20239;-79
2021/01/28 08:04:12;;;;;;;9.23;8.27;;;4.20;99.90;;;;;;5003732;28;20524;-79
2021/01/28 08:06:39;;;;;;;10.10;8.73;;;4.20;99.90;;;;;;5021158;28;20470;-80
2021/01/28 08:09:14;;;;;;;9.60;8.40;;;4.20;99.90;;;;;;5034426;28;20414;-81
2021/01/28 08:11:47;;;;;;;9.50;7.70;;;4.20;99.90;;;;;;5026732;28;20418;-77
2021/01/28 08:14:14;;;;;;;9.43;8.50;;;4.30;99.90;;;;;;5018454;28;20442;-79
2021/01/28 08:16:41;;;;;;;8.97;8.07;;;4.20;99.90;;;;;;5032860;28;20439;-78
2021/01/28 08:19:15;;;;;;;9.03;8.13;;;4.20;99.90;;;;;;5005184;28;20561;-77
2021/01/28 08:21:41;;;;;;;7.80;7.00;;;4.30;99.90;;;;;;5014333;28;20468;-80
2021/01/28 08:24:34;;;;;;;6.83;5.90;;;4.30;99.90;;;;;;5018004;28;20480;-81
2021/01/28 08:27:16;;;;;;;7.40;6.23;;;4.30;99.90;;;;;;5038789;28;20199;-80
2021/01/28 08:29:42;;;;;;;6.03;5.37;;;4.30;99.90;;;;;;5016112;28;20450;-79
2021/01/28 08:32:25;;;;;;;6.70;6.10;;;4.40;99.90;;;;;;5028923;28;20431;-79
2021/01/28 08:34:59;;;;;;;6.23;5.63;;;4.40;99.90;;;;;;5026384;28;20201;-80
2021/01/28 08:37:25;;;;;;;5.80;5.23;;;4.40;99.90;;;;;;5036645;28;20418;-81
2021/01/28 08:39:52;;;;;;;5.60;4.90;;;4.50;99.90;;;;;;5020127;28;20449;-79
2021/01/28 08:42:20;;;;;;;5.60;4.50;;;4.50;99.90;;;;;;5017013;28;20468;-79
2021/01/28 08:44:47;;;;;;;5.03;4.63;;;4.50;99.90;;;;;;5018262;28;20478;-79
2021/01/28 08:47:22;;;;;;;9.27;5.67;;;4.60;99.90;;;;;;5028970;28;20410;-79
2021/01/28 08:50:14;;;;;;;6.17;4.70;;;4.60;99.90;;;;;;5039680;28;20425;-79
2021/01/28 08:52:42;;;;;;;4.47;4.03;;;4.70;99.90;;;;;;5013868;28;20419;-79
2021/01/28 08:55:31;;;;;;;4.30;3.90;;;4.70;99.90;;;;;;5033825;28;20464;-79
2021/01/28 08:58:07;;;;;;;4.90;4.50;;;4.70;99.90;;;;;;5014972;28;20800;-78
2021/01/28 09:00:37;;;;;;;3.97;3.53;;;4.70;99.90;;;;;;5034971;28;20568;-80
2021/01/28 09:03:03;;;;;;;4.43;3.67;;;4.80;99.90;;;;;;5012467;28;20423;-79
2021/01/28 09:05:32;;;;;;;4.00;3.17;;;4.80;99.90;;;;;;5009442;28;20433;-79
2021/01/28 09:08:20;;;;;;;3.50;3.20;;;4.80;99.90;;;;;;5034462;28;20179;-79
2021/01/28 09:10:46;;;;;;;2.80;2.60;;;4.80;99.90;;;;;;5006325;28;20447;-79
2021/01/28 09:13:22;;;;;;;6.70;4.00;;;4.80;99.90;;;;;;5032518;28;20433;-78
2021/01/28 09:16:07;;;;;;;4.90;3.17;;;4.90;99.90;;;;;;5024819;28;20211;-78
2021/01/28 09:18:55;;;;;;;4.60;3.03;;;4.90;99.90;;;;;;5028015;28;20429;-78
2021/01/28 09:21:23;;;;;;;3.27;3.07;;;4.90;99.90;;;;;;5030689;28;20473;-78
2021/01/28 09:23:57;;;;;;;3.53;3.23;;;4.90;99.90;;;;;;5035399;28;20432;-79
2021/01/28 09:26:27;;;;;;;4.10;3.60;;;4.90;99.90;;;;;;5032482;28;20756;-79
2021/01/28 09:28:52;;;;;;;3.90;3.60;;;4.90;99.90;;;;;;5005645;28;20427;-78
2021/01/28 09:31:29;;;;;;;3.67;3.30;;;4.90;99.90;;;;;;5013919;28;20452;-78
2021/01/28 09:33:55;;;;;;;3.60;3.30;;;4.90;99.90;;;;;;5028022;28;20190;-77
2021/01/28 09:36:27;;;;;;;4.57;4.17;;;4.90;99.90;;;;;;5028919;28;20422;-78
2021/01/28 09:39:19;;;;;;;4.87;4.47;;;4.90;99.90;;;;;;5026811;28;20402;-78
2021/01/28 09:41:53;;;;;;;4.50;3.43;;;4.90;99.90;;;;;;5026110;28;20501;-77
2021/01/28 09:44:44;;;;;;;4.90;4.43;;;4.90;99.90;;;;;;5029892;28;20402;-76
2021/01/28 09:47:16;;;;;;;4.57;3.53;;;5.00;99.90;;;;;;5022064;28;20414;-77
2021/01/28 09:49:42;;;;;;;3.67;3.40;;;5.00;99.90;;;;;;5011198;28;20442;-77
2021/01/28 09:52:21;;;;;;;5.17;4.67;;;5.00;99.90;;;;;;5019570;28;20411;-77
2021/01/28 09:54:50;;;;;;;5.00;4.30;;;5.00;99.90;;;;;;5005987;28;20426;-80
2021/01/28 09:57:16;;;;;;;4.20;3.80;;;5.00;99.90;;;;;;5028832;28;20415;-78
2021/01/28 09:59:41;;;;;;;5.20;4.70;;;5.00;99.90;;;;;;5012218;28;20537;-79
2021/01/28 10:02:07;;;;;;;3.97;3.57;;;5.00;99.90;;;;;;5031508;28;20482;-78
2021/01/28 10:04:33;;;;;;;6.10;4.10;;;5.00;99.90;;;;;;5020132;28;20187;-78
2021/01/28 10:06:58;;;;;;;5.20;4.67;;;5.00;99.90;;;;;;5020049;28;20216;-77
2021/01/28 10:09:24;;;;;;;4.30;4.00;;;5.00;99.90;;;;;;5019443;28;20241;-78
2021/01/28 10:11:49;;;;;;;4.93;4.30;;;5.10;99.90;;;;;;5037936;28;20271;-76
2021/01/28 10:14:15;;;;;;;4.43;4.03;;;5.10;99.90;;;;;;5031894;28;20298;-78
2021/01/28 10:16:41;;;;;;;4.90;4.00;;;5.10;99.90;;;;;;5008961;28;20219;-78
2021/01/28 10:19:06;;;;;;;5.70;5.20;;;5.10;99.90;;;;;;5019994;28;20845;-77
2021/01/28 10:21:32;;;;;;;5.47;4.93;;;5.10;99.90;;;;;;5011831;28;20207;-77
2021/01/28 10:23:58;;;;;;;4.83;4.43;;;5.10;99.90;;;;;;5014808;28;20236;-77
2021/01/28 10:26:23;;;;;;;7.27;4.57;;;5.10;99.90;;;;;;5036634;28;20205;-78
2021/01/28 10:28:49;;;;;;;7.27;5.87;;;5.10;99.90;;;;;;5037300;28;20202;-77
2021/01/28 10:31:14;;;;;;;6.00;5.50;;;5.10;99.90;;;;;;5035194;28;20590;-78
2021/01/28 10:33:40;;;;;;;8.33;6.60;;;5.10;99.90;;;;;;5033483;28;20183;-79
2021/01/28 10:36:07;;;;;;;6.10;5.50;;;5.10;99.90;;;;;;5025648;28;20608;-80
2021/01/28 10:38:33;;;;;;;6.73;5.07;;;5.20;99.90;;;;;;5018353;28;20191;-80
2021/01/28 10:40:59;;;;;;;6.00;5.40;;;5.20;99.90;;;;;;5014930;28;20457;-79
2021/01/28 10:43:25;;;;;;;8.03;7.10;;;5.20;99.90;;;;;;5014733;28;20838;-78
2021/01/28 10:45:51;;;;;;;6.37;5.77;;;5.30;99.90;;;;;;5014874;28;20229;-76
2021/01/28 10:48:17;;;;;;;8.37;6.23;;;5.20;99.90;;;;;;5019172;28;20820;-77
2021/01/28 10:50:44;;;;;;;7.03;6.40;;;5.30;99.90;;;;;;5011629;28;20509;-79
2021/01/28 10:53:10;;;;;;;6.57;5.97;;;5.30;99.90;;;;;;5015384;28;20195;-78
2021/01/28 10:55:36;;;;;;;6.70;5.70;;;5.30;99.90;;;;;;5033788;28;20433;-78
2021/01/28 10:58:02;;;;;;;6.37;5.67;;;5.40;99.90;;;;;;5036776;28;20421;-77
2021/01/28 11:00:29;;;;;;;8.03;6.93;;;5.40;99.90;;;;;;5039387;28;20238;-78
2021/01/28 11:02:55;;;;;;;7.03;6.33;;;5.40;99.90;;;;;;5038653;28;20410;-78
2021/01/28 11:05:37;;;;;;;6.73;6.03;;;5.40;99.90;;;;;;5022716;28;20414;-79
2021/01/28 11:08:04;;;;;;;9.40;7.33;;;5.40;99.90;;;;;;5035580;28;20791;-78
2021/01/28 11:10:30;;;;;;;7.30;6.50;;;5.50;99.90;;;;;;5035216;28;20445;-77
2021/01/28 11:12:57;;;;;;;7.77;7.07;;;5.50;99.90;;;;;;5020709;28;20431;-78
2021/01/28 11:15:26;;;;;;;8.70;7.77;;;5.50;99.90;;;;;;5040046;28;20416;-78
2021/01/28 11:17:51;;;;;;;7.43;6.67;;;5.60;99.90;;;;;;5032616;28;20425;-79
2021/01/28 11:20:17;;;;;;;7.53;6.83;;;5.60;99.90;;;;;;5031603;28;20515;-78
2021/01/28 11:22:43;;;;;;;7.63;6.93;;;5.70;99.90;;;;;;5014631;28;20179;-79
2021/01/28 11:25:13;;;;;;;7.73;6.93;;;5.60;99.90;;;;;;5032963;28;20422;-77
2021/01/28 11:27:39;;;;;;;9.97;8.57;;;5.60;99.90;;;;;;5037365;28;20179;-78
2021/01/28 11:30:08;;;;;;;9.10;8.20;;;5.70;99.90;;;;;;5019868;28;20462;-77
2021/01/28 11:32:33;;;;;;;9.60;8.60;;;5.70;99.90;;;;;;5030683;28;20469;-79
2021/01/28 11:34:59;;;;;;;9.50;8.57;;;5.70;99.90;;;;;;5006881;28;20431;-77
2021/01/28 11:37:25;;;;;;;10.17;8.23;;;5.70;99.90;;;;;;5036260;28;20187;-79
2021/01/28 11:39:50;;;;;;;9.33;8.30;;;5.70;99.90;;;;;;5015539;28;20588;-78
2021/01/28 11:42:19;;;;;;;11.67;9.90;;;5.70;99.90;;;;;;5033835;28;20410;-79
2021/01/28 11:44:45;;;;;;;10.50;9.40;;;5.70;99.90;;;;;;5016784;28;20241;-79
2021/01/28 11:47:11;;;;;;;10.23;9.23;;;5.70;99.90;;;;;;5005631;28;20427;-78
2021/01/28 11:49:37;;;;;;;11.30;10.10;;;5.80;99.90;;;;;;5037155;28;20232;-77
2021/01/28 11:52:03;;;;;;;10.43;8.83;;;5.80;99.90;;;;;;5030435;28;20445;-78
2021/01/28 11:54:28;;;;;;;10.80;9.23;;;5.80;99.90;;;;;;5032912;28;20554;-78
2021/01/28 11:56:54;;;;;;;11.80;9.60;;;5.90;99.90;;;;;;5013581;28;20193;-78
2021/01/28 11:59:20;;;;;;;10.53;9.10;;;5.90;99.90;;;;;;5012613;28;20182;-78
2021/01/28 12:01:45;;;;;;;11.40;10.20;;;5.90;99.90;;;;;;5012303;28;20461;-78
2021/01/28 12:04:11;;;;;;;9.50;8.60;;;5.90;99.90;;;;;;5031744;28;20186;-78
2021/01/28 12:06:38;;;;;;;8.97;8.00;;;6.00;99.90;;;;;;5031948;28;20191;-78
2021/01/28 12:09:04;;;;;;;9.87;8.87;;;6.10;99.90;;;;;;5031399;28;20175;-77
2021/01/28 12:11:30;;;;;;;9.83;8.70;;;6.10;99.90;;;;;;5026861;28;20860;-79
2021/01/28 12:13:55;;;;;;;9.63;8.63;;;6.10;99.90;;;;;;5019862;28;20183;-79
2021/01/28 12:16:21;;;;;;;9.43;8.20;;;6.20;99.90;;;;;;5027492;28;20186;-78
2021/01/28 12:18:47;;;;;;;10.40;8.90;;;6.20;99.90;;;;;;5014111;28;20194;-78
2021/01/28 12:21:12;;;;;;;8.47;7.73;;;6.20;99.90;;;;;;5013465;28;20218;-78
2021/01/28 12:23:38;;;;;;;9.33;8.33;;;6.20;99.90;;;;;;5015933;28;20545;-80
2021/01/28 12:26:03;;;;;;;10.97;9.23;;;6.20;99.90;;;;;;5030073;28;20185;-78
2021/01/28 12:28:29;;;;;;;9.77;8.77;;;6.20;99.90;;;;;;5012634;28;20184;-78
2021/01/28 12:30:55;;;;;;;9.53;8.63;;;6.20;99.90;;;;;;5031441;28;20222;-78
2021/01/28 12:33:20;;;;;;;11.70;9.43;;;6.30;99.90;;;;;;5017936;28;20260;-78
2021/01/28 12:35:46;;;;;;;10.83;9.80;;;6.30;99.90;;;;;;5027758;28;20187;-77
2021/01/28 12:38:11;;;;;;;10.10;9.10;;;6.30;99.90;;;;;;5008550;28;20203;-78
2021/01/28 12:40:37;;;;;;;11.93;10.30;;;6.40;99.90;;;;;;5030047;28;20234;-79
2021/01/28 12:43:03;;;;;;;10.37;9.30;;;6.40;99.90;;;;;;5027797;28;20590;-78
2021/01/28 12:45:29;;;;;;;10.67;9.67;;;6.40;99.90;;;;;;5028551;28;20334;-77
2021/01/28 12:47:54;;;;;;;11.80;9.57;;;6.40;99.90;;;;;;5032308;28;20236;-78
2021/01/28 12:50:20;;;;;;;10.97;9.47;;;6.50;99.90;;;;;;5038781;28;20442;-78
2021/01/28 12:52:46;;;;;;;11.23;10.13;;;6.60;99.90;;;;;;5038051;28;20179;-79
2021/01/28 12:55:13;;;;;;;11.67;10.07;;;6.60;99.90;;;;;;5040871;28;20221;-78
2021/01/28 12:57:39;;;;;;;11.70;10.50;;;6.70;99.90;;;;;;5016399;28;20436;-80
2021/01/28 13:00:08;;;;;;;11.80;10.80;;;6.70;99.90;;;;;;5032528;28;20465;-78